sensor_id;sensor_type;location;lat;lon;timestamp;P1;durP1;ratioP1;P2;durP2;ratioP2
17937;SDS011;16051;53.024;8.630;2023-01-31T00:01:22;10.80;;;2.83;;
17937;SDS011;16051;53.024;8.630;2023-01-31T00:05:28;18.17;;;3.53;;
17937;SDS011;16051;53.024;8.630;2023-01-31T00:09:31;14.93;;;3.23;;
17937;SDS011;16051;53.024;8.630;2023-01-31T00:18:07;15.43;;;3.70;;
17937;SDS011;16051;53.024;8.630;2023-01-31T00:22:09;14.97;;;3.20;;
17937;SDS011;16051;53.024;8.630;2023-01-31T00:26:14;18.80;;;3.67;;
17937;SDS011;16051;53.024;8.630;2023-01-31T00:30:19;14.83;;;2.93;;
17937;SDS011;16051;53.024;8.630;2023-01-31T00:34:21;13.27;;;3.17;;
17937;SDS011;16051;53.024;8.630;2023-01-31T00:38:23;14.23;;;4.10;;
17937;SDS011;16051;53.024;8.630;2023-01-31T00:42:26;17.70;;;3.47;;
17937;SDS011;16051;53.024;8.630;2023-01-31T00:46:29;13.90;;;3.23;;
17937;SDS011;16051;53.024;8.630;2023-01-31T00:50:31;19.70;;;3.07;;
17937;SDS011;16051;53.024;8.630;2023-01-31T00:54:33;18.53;;;3.90;;
17937;SDS011;16051;53.024;8.630;2023-01-31T00:58:44;15.37;;;3.00;;
17937;SDS011;16051;53.024;8.630;2023-01-31T01:02:46;16.53;;;2.90;;
17937;SDS011;16051;53.024;8.630;2023-01-31T01:06:48;15.43;;;2.77;;
17937;SDS011;16051;53.024;8.630;2023-01-31T01:10:51;12.27;;;2.93;;
17937;SDS011;16051;53.024;8.630;2023-01-31T01:19:02;11.67;;;3.13;;
17937;SDS011;16051;53.024;8.630;2023-01-31T01:23:05;12.37;;;3.00;;
17937;SDS011;16051;53.024;8.630;2023-01-31T01:27:08;13.93;;;2.70;;
17937;SDS011;16051;53.024;8.630;2023-01-31T01:31:19;17.13;;;2.70;;
17937;SDS011;16051;53.024;8.630;2023-01-31T01:35:29;12.10;;;2.43;;
17937;SDS011;16051;53.024;8.630;2023-01-31T01:39:31;18.50;;;2.73;;
17937;SDS011;16051;53.024;8.630;2023-01-31T01:43:40;8.50;;;2.30;;
17937;SDS011;16051;53.024;8.630;2023-01-31T01:47:47;11.33;;;2.33;;
17937;SDS011;16051;53.024;8.630;2023-01-31T01:51:53;15.23;;;2.60;;
17937;SDS011;16051;53.024;8.630;2023-01-31T01:56:01;14.57;;;2.63;;
17937;SDS011;16051;53.024;8.630;2023-01-31T02:00:11;17.97;;;3.40;;
17937;SDS011;16051;53.024;8.630;2023-01-31T02:04:20;9.53;;;2.50;;
17937;SDS011;16051;53.024;8.630;2023-01-31T02:08:29;11.80;;;2.70;;
17937;SDS011;16051;53.024;8.630;2023-01-31T02:12:34;12.77;;;2.70;;
17937;SDS011;16051;53.024;8.630;2023-01-31T02:16:50;13.43;;;2.90;;
17937;SDS011;16051;53.024;8.630;2023-01-31T02:21:18;10.87;;;2.80;;
17937;SDS011;16051;53.024;8.630;2023-01-31T02:26:10;21.20;;;3.63;;
17937;SDS011;16051;53.024;8.630;2023-01-31T02:35:45;20.17;;;3.23;;
17937;SDS011;16051;53.024;8.630;2023-01-31T02:40:00;15.63;;;3.23;;
17937;SDS011;16051;53.024;8.630;2023-01-31T02:44:16;13.30;;;3.10;;
17937;SDS011;16051;53.024;8.630;2023-01-31T02:48:45;9.83;;;2.60;;
17937;SDS011;16051;53.024;8.630;2023-01-31T02:52:58;15.63;;;3.60;;
17937;SDS011;16051;53.024;8.630;2023-01-31T02:57:09;16.80;;;3.10;;
17937;SDS011;16051;53.024;8.630;2023-01-31T03:01:12;16.43;;;2.70;;
17937;SDS011;16051;53.024;8.630;2023-01-31T03:05:22;14.13;;;3.17;;
17937;SDS011;16051;53.024;8.630;2023-01-31T03:09:29;18.57;;;3.47;;
17937;SDS011;16051;53.024;8.630;2023-01-31T03:13:44;20.00;;;3.17;;
17937;SDS011;16051;53.024;8.630;2023-01-31T03:17:59;20.07;;;3.37;;
17937;SDS011;16051;53.024;8.630;2023-01-31T03:22:09;17.30;;;4.03;;
17937;SDS011;16051;53.024;8.630;2023-01-31T03:26:17;14.30;;;3.23;;
17937;SDS011;16051;53.024;8.630;2023-01-31T03:30:25;16.07;;;3.20;;
17937;SDS011;16051;53.024;8.630;2023-01-31T03:34:34;9.80;;;3.70;;
17937;SDS011;16051;53.024;8.630;2023-01-31T03:38:38;11.97;;;2.77;;
17937;SDS011;16051;53.024;8.630;2023-01-31T03:42:52;9.30;;;2.80;;
17937;SDS011;16051;53.024;8.630;2023-01-31T03:47:03;13.33;;;2.87;;
17937;SDS011;16051;53.024;8.630;2023-01-31T03:51:13;11.83;;;2.57;;
17937;SDS011;16051;53.024;8.630;2023-01-31T03:55:23;12.37;;;2.50;;
17937;SDS011;16051;53.024;8.630;2023-01-31T03:59:36;12.20;;;2.73;;
17937;SDS011;16051;53.024;8.630;2023-01-31T04:03:41;13.63;;;2.90;;
17937;SDS011;16051;53.024;8.630;2023-01-31T04:07:49;10.10;;;2.87;;
17937;SDS011;16051;53.024;8.630;2023-01-31T04:11:51;13.73;;;2.30;;
17937;SDS011;16051;53.024;8.630;2023-01-31T04:15:55;12.33;;;3.23;;
17937;SDS011;16051;53.024;8.630;2023-01-31T04:19:57;9.37;;;2.63;;
17937;SDS011;16051;53.024;8.630;2023-01-31T04:24:00;10.63;;;2.87;;
17937;SDS011;16051;53.024;8.630;2023-01-31T04:28:02;12.87;;;2.50;;
17937;SDS011;16051;53.024;8.630;2023-01-31T04:32:06;14.60;;;2.53;;
17937;SDS011;16051;53.024;8.630;2023-01-31T04:36:08;10.53;;;2.40;;
17937;SDS011;16051;53.024;8.630;2023-01-31T04:40:18;12.33;;;2.60;;
17937;SDS011;16051;53.024;8.630;2023-01-31T04:44:20;12.47;;;2.50;;
17937;SDS011;16051;53.024;8.630;2023-01-31T04:48:24;9.57;;;2.37;;
17937;SDS011;16051;53.024;8.630;2023-01-31T04:52:26;12.00;;;2.93;;
17937;SDS011;16051;53.024;8.630;2023-01-31T04:56:28;13.47;;;2.93;;
17937;SDS011;16051;53.024;8.630;2023-01-31T05:00:31;8.80;;;2.67;;
17937;SDS011;16051;53.024;8.630;2023-01-31T05:04:34;10.80;;;3.10;;
17937;SDS011;16051;53.024;8.630;2023-01-31T05:08:36;16.23;;;2.83;;
17937;SDS011;16051;53.024;8.630;2023-01-31T05:12:38;10.77;;;3.27;;
17937;SDS011;16051;53.024;8.630;2023-01-31T05:16:40;15.63;;;3.17;;
17937;SDS011;16051;53.024;8.630;2023-01-31T05:20:47;10.90;;;2.20;;
17937;SDS011;16051;53.024;8.630;2023-01-31T05:24:59;9.57;;;2.60;;
17937;SDS011;16051;53.024;8.630;2023-01-31T05:29:01;8.27;;;2.47;;
17937;SDS011;16051;53.024;8.630;2023-01-31T05:33:06;10.90;;;2.30;;
17937;SDS011;16051;53.024;8.630;2023-01-31T05:37:09;11.03;;;2.90;;
17937;SDS011;16051;53.024;8.630;2023-01-31T05:41:11;9.80;;;2.40;;
17937;SDS011;16051;53.024;8.630;2023-01-31T05:45:19;8.80;;;2.60;;
17937;SDS011;16051;53.024;8.630;2023-01-31T05:49:21;12.87;;;2.73;;
17937;SDS011;16051;53.024;8.630;2023-01-31T05:53:25;11.63;;;2.93;;
17937;SDS011;16051;53.024;8.630;2023-01-31T05:57:27;9.23;;;2.50;;
17937;SDS011;16051;53.024;8.630;2023-01-31T06:01:29;7.73;;;2.37;;
17937;SDS011;16051;53.024;8.630;2023-01-31T06:05:39;11.63;;;3.20;;
17937;SDS011;16051;53.024;8.630;2023-01-31T06:09:43;9.17;;;2.63;;
17937;SDS011;16051;53.024;8.630;2023-01-31T06:13:45;13.43;;;2.73;;
17937;SDS011;16051;53.024;8.630;2023-01-31T06:17:48;12.17;;;3.23;;
17937;SDS011;16051;53.024;8.630;2023-01-31T06:21:50;12.00;;;2.93;;
17937;SDS011;16051;53.024;8.630;2023-01-31T06:25:53;14.23;;;3.73;;
17937;SDS011;16051;53.024;8.630;2023-01-31T06:30:02;18.27;;;3.47;;
17937;SDS011;16051;53.024;8.630;2023-01-31T06:34:16;9.23;;;3.40;;
17937;SDS011;16051;53.024;8.630;2023-01-31T06:38:25;12.80;;;4.13;;
17937;SDS011;16051;53.024;8.630;2023-01-31T06:42:28;14.03;;;4.50;;
17937;SDS011;16051;53.024;8.630;2023-01-31T06:46:30;16.90;;;4.47;;
17937;SDS011;16051;53.024;8.630;2023-01-31T06:50:33;11.93;;;3.73;;
17937;SDS011;16051;53.024;8.630;2023-01-31T06:54:35;13.80;;;4.10;;
17937;SDS011;16051;53.024;8.630;2023-01-31T06:58:38;10.27;;;3.77;;
17937;SDS011;16051;53.024;8.630;2023-01-31T07:02:40;15.50;;;4.60;;
17937;SDS011;16051;53.024;8.630;2023-01-31T07:06:42;15.30;;;4.23;;
17937;SDS011;16051;53.024;8.630;2023-01-31T07:10:58;15.13;;;4.47;;
17937;SDS011;16051;53.024;8.630;2023-01-31T07:15:03;14.37;;;4.50;;
17937;SDS011;16051;53.024;8.630;2023-01-31T07:19:06;16.40;;;4.53;;
17937;SDS011;16051;53.024;8.630;2023-01-31T07:23:08;11.93;;;4.23;;
17937;SDS011;16051;53.024;8.630;2023-01-31T07:27:11;17.77;;;4.60;;
17937;SDS011;16051;53.024;8.630;2023-01-31T07:31:15;10.90;;;5.10;;
17937;SDS011;16051;53.024;8.630;2023-01-31T07:35:17;14.43;;;4.67;;
17937;SDS011;16051;53.024;8.630;2023-01-31T07:39:20;15.17;;;4.83;;
17937;SDS011;16051;53.024;8.630;2023-01-31T07:43:22;19.57;;;6.37;;
17937;SDS011;16051;53.024;8.630;2023-01-31T07:47:27;14.83;;;5.60;;
17937;SDS011;16051;53.024;8.630;2023-01-31T07:51:29;19.50;;;5.97;;
17937;SDS011;16051;53.024;8.630;2023-01-31T07:55:31;16.83;;;6.30;;
17937;SDS011;16051;53.024;8.630;2023-01-31T07:59:33;16.90;;;6.33;;
17937;SDS011;16051;53.024;8.630;2023-01-31T08:03:45;13.27;;;5.67;;
17937;SDS011;16051;53.024;8.630;2023-01-31T08:07:46;19.97;;;6.63;;
17937;SDS011;16051;53.024;8.630;2023-01-31T08:12:08;20.10;;;7.40;;
17937;SDS011;16051;53.024;8.630;2023-01-31T08:20:19;15.13;;;6.67;;
17937;SDS011;16051;53.024;8.630;2023-01-31T08:24:21;18.53;;;8.27;;
17937;SDS011;16051;53.024;8.630;2023-01-31T08:28:23;21.33;;;7.40;;
17937;SDS011;16051;53.024;8.630;2023-01-31T08:32:26;15.20;;;8.03;;
17937;SDS011;16051;53.024;8.630;2023-01-31T08:36:30;26.27;;;7.83;;
17937;SDS011;16051;53.024;8.630;2023-01-31T08:40:32;17.90;;;8.00;;
17937;SDS011;16051;53.024;8.630;2023-01-31T08:44:36;19.53;;;7.90;;
17937;SDS011;16051;53.024;8.630;2023-01-31T08:48:52;22.03;;;8.10;;
17937;SDS011;16051;53.024;8.630;2023-01-31T08:52:56;19.87;;;7.83;;
17937;SDS011;16051;53.024;8.630;2023-01-31T08:57:07;19.33;;;7.20;;
17937;SDS011;16051;53.024;8.630;2023-01-31T09:01:09;15.63;;;7.47;;
17937;SDS011;16051;53.024;8.630;2023-01-31T09:05:14;27.43;;;9.27;;
17937;SDS011;16051;53.024;8.630;2023-01-31T09:09:18;22.43;;;9.13;;
17937;SDS011;16051;53.024;8.630;2023-01-31T09:13:21;23.43;;;9.00;;
17937;SDS011;16051;53.024;8.630;2023-01-31T09:17:30;19.53;;;8.20;;
17937;SDS011;16051;53.024;8.630;2023-01-31T09:21:32;18.00;;;8.57;;
17937;SDS011;16051;53.024;8.630;2023-01-31T09:25:38;15.73;;;8.67;;
17937;SDS011;16051;53.024;8.630;2023-01-31T09:29:40;22.63;;;8.00;;
17937;SDS011;16051;53.024;8.630;2023-01-31T09:33:42;20.93;;;9.67;;
17937;SDS011;16051;53.024;8.630;2023-01-31T09:37:46;25.60;;;9.33;;
17937;SDS011;16051;53.024;8.630;2023-01-31T09:41:51;19.13;;;8.73;;
17937;SDS011;16051;53.024;8.630;2023-01-31T09:45:57;19.30;;;8.17;;
17937;SDS011;16051;53.024;8.630;2023-01-31T09:50:16;20.80;;;8.87;;
17937;SDS011;16051;53.024;8.630;2023-01-31T09:54:24;26.17;;;9.23;;
17937;SDS011;16051;53.024;8.630;2023-01-31T09:58:39;21.50;;;8.53;;
17937;SDS011;16051;53.024;8.630;2023-01-31T10:02:55;17.40;;;8.97;;
17937;SDS011;16051;53.024;8.630;2023-01-31T10:07:40;26.83;;;9.63;;
17937;SDS011;16051;53.024;8.630;2023-01-31T10:16:20;22.13;;;9.30;;
17937;SDS011;16051;53.024;8.630;2023-01-31T10:20:31;20.97;;;8.63;;
17937;SDS011;16051;53.024;8.630;2023-01-31T10:24:44;22.77;;;10.00;;
17937;SDS011;16051;53.024;8.630;2023-01-31T10:28:53;20.50;;;9.10;;
17937;SDS011;16051;53.024;8.630;2023-01-31T10:33:08;20.50;;;10.40;;
17937;SDS011;16051;53.024;8.630;2023-01-31T10:37:27;22.03;;;10.40;;
17937;SDS011;16051;53.024;8.630;2023-01-31T10:41:38;22.17;;;11.23;;
17937;SDS011;16051;53.024;8.630;2023-01-31T10:45:50;19.43;;;11.30;;
17937;SDS011;16051;53.024;8.630;2023-01-31T10:49:56;21.17;;;10.13;;
17937;SDS011;16051;53.024;8.630;2023-01-31T10:54:11;19.63;;;9.73;;
17937;SDS011;16051;53.024;8.630;2023-01-31T10:58:25;22.60;;;9.83;;
17937;SDS011;16051;53.024;8.630;2023-01-31T11:02:27;21.53;;;9.67;;
17937;SDS011;16051;53.024;8.630;2023-01-31T11:06:32;22.77;;;9.00;;
17937;SDS011;16051;53.024;8.630;2023-01-31T11:10:34;14.83;;;7.47;;
17937;SDS011;16051;53.024;8.630;2023-01-31T11:15:02;20.20;;;7.83;;
17937;SDS011;16051;53.024;8.630;2023-01-31T11:19:12;17.93;;;9.10;;
17937;SDS011;16051;53.024;8.630;2023-01-31T11:27:36;13.87;;;7.63;;
17937;SDS011;16051;53.024;8.630;2023-01-31T11:31:42;16.17;;;8.10;;
17937;SDS011;16051;53.024;8.630;2023-01-31T11:35:55;15.37;;;8.20;;
17937;SDS011;16051;53.024;8.630;2023-01-31T11:39:59;18.93;;;8.47;;
17937;SDS011;16051;53.024;8.630;2023-01-31T11:44:19;15.40;;;8.20;;
17937;SDS011;16051;53.024;8.630;2023-01-31T11:48:24;15.87;;;7.23;;
17937;SDS011;16051;53.024;8.630;2023-01-31T11:52:32;14.47;;;7.43;;
17937;SDS011;16051;53.024;8.630;2023-01-31T11:56:41;10.33;;;6.53;;
17937;SDS011;16051;53.024;8.630;2023-01-31T12:00:50;15.03;;;7.97;;
17937;SDS011;16051;53.024;8.630;2023-01-31T12:05:09;10.53;;;5.63;;
17937;SDS011;16051;53.024;8.630;2023-01-31T12:09:18;16.13;;;7.13;;
17937;SDS011;16051;53.024;8.630;2023-01-31T12:13:23;11.07;;;6.23;;
17937;SDS011;16051;53.024;8.630;2023-01-31T12:17:28;12.70;;;6.37;;
17937;SDS011;16051;53.024;8.630;2023-01-31T12:21:39;12.70;;;5.60;;
17937;SDS011;16051;53.024;8.630;2023-01-31T12:26:02;13.63;;;5.43;;
17937;SDS011;16051;53.024;8.630;2023-01-31T12:30:22;7.70;;;4.57;;
17937;SDS011;16051;53.024;8.630;2023-01-31T12:34:45;7.93;;;4.03;;
17937;SDS011;16051;53.024;8.630;2023-01-31T12:39:17;6.90;;;3.30;;
17937;SDS011;16051;53.024;8.630;2023-01-31T12:43:48;5.77;;;3.53;;
17937;SDS011;16051;53.024;8.630;2023-01-31T12:48:37;7.57;;;3.57;;
17937;SDS011;16051;53.024;8.630;2023-01-31T12:53:11;5.83;;;3.20;;
17937;SDS011;16051;53.024;8.630;2023-01-31T12:57:41;5.70;;;2.90;;
17937;SDS011;16051;53.024;8.630;2023-01-31T13:01:53;3.10;;;2.20;;
17937;SDS011;16051;53.024;8.630;2023-01-31T13:06:05;3.90;;;2.80;;
17937;SDS011;16051;53.024;8.630;2023-01-31T13:10:18;7.20;;;3.80;;
17937;SDS011;16051;53.024;8.630;2023-01-31T13:14:35;5.70;;;3.20;;
17937;SDS011;16051;53.024;8.630;2023-01-31T13:18:42;5.43;;;2.97;;
17937;SDS011;16051;53.024;8.630;2023-01-31T13:22:51;4.23;;;2.80;;
17937;SDS011;16051;53.024;8.630;2023-01-31T13:26:58;2.50;;;2.17;;
17937;SDS011;16051;53.024;8.630;2023-01-31T13:31:07;4.87;;;2.67;;
17937;SDS011;16051;53.024;8.630;2023-01-31T13:35:27;3.20;;;1.90;;
17937;SDS011;16051;53.024;8.630;2023-01-31T13:39:38;2.23;;;1.97;;
17937;SDS011;16051;53.024;8.630;2023-01-31T13:43:43;3.80;;;2.50;;
17937;SDS011;16051;53.024;8.630;2023-01-31T13:47:46;3.60;;;2.30;;
17937;SDS011;16051;53.024;8.630;2023-01-31T13:51:56;3.23;;;2.30;;
17937;SDS011;16051;53.024;8.630;2023-01-31T13:56:18;6.23;;;3.00;;
17937;SDS011;16051;53.024;8.630;2023-01-31T14:00:30;3.20;;;2.60;;
17937;SDS011;16051;53.024;8.630;2023-01-31T14:04:39;4.00;;;2.33;;
17937;SDS011;16051;53.024;8.630;2023-01-31T14:08:57;6.50;;;2.60;;
17937;SDS011;16051;53.024;8.630;2023-01-31T14:17:56;6.67;;;2.93;;
17937;SDS011;16051;53.024;8.630;2023-01-31T14:22:19;9.07;;;3.13;;
17937;SDS011;16051;53.024;8.630;2023-01-31T14:26:31;10.47;;;3.40;;
17937;SDS011;16051;53.024;8.630;2023-01-31T14:30:53;7.73;;;3.60;;
17937;SDS011;16051;53.024;8.630;2023-01-31T14:35:02;7.50;;;3.90;;
17937;SDS011;16051;53.024;8.630;2023-01-31T14:44:21;9.93;;;3.13;;
17937;SDS011;16051;53.024;8.630;2023-01-31T14:53:23;11.80;;;3.67;;
17937;SDS011;16051;53.024;8.630;2023-01-31T14:58:01;11.37;;;3.97;;
17937;SDS011;16051;53.024;8.630;2023-01-31T15:02:18;11.27;;;3.73;;
17937;SDS011;16051;53.024;8.630;2023-01-31T15:06:54;14.37;;;3.80;;
17937;SDS011;16051;53.024;8.630;2023-01-31T15:10:59;15.33;;;3.17;;
17937;SDS011;16051;53.024;8.630;2023-01-31T15:19:25;10.97;;;4.27;;
17937;SDS011;16051;53.024;8.630;2023-01-31T15:23:36;11.77;;;3.30;;
17937;SDS011;16051;53.024;8.630;2023-01-31T15:27:43;13.13;;;3.43;;
17937;SDS011;16051;53.024;8.630;2023-01-31T15:31:47;10.27;;;3.20;;
17937;SDS011;16051;53.024;8.630;2023-01-31T15:35:54;10.63;;;3.73;;
17937;SDS011;16051;53.024;8.630;2023-01-31T15:40:18;8.90;;;2.63;;
17937;SDS011;16051;53.024;8.630;2023-01-31T15:44:29;8.70;;;2.70;;
17937;SDS011;16051;53.024;8.630;2023-01-31T15:48:31;9.27;;;3.07;;
17937;SDS011;16051;53.024;8.630;2023-01-31T15:52:33;14.83;;;3.90;;
17937;SDS011;16051;53.024;8.630;2023-01-31T15:56:50;22.77;;;11.00;;
17937;SDS011;16051;53.024;8.630;2023-01-31T16:05:37;12.77;;;4.47;;
17937;SDS011;16051;53.024;8.630;2023-01-31T16:09:40;9.50;;;2.80;;
17937;SDS011;16051;53.024;8.630;2023-01-31T16:13:44;13.80;;;4.37;;
17937;SDS011;16051;53.024;8.630;2023-01-31T16:17:49;17.57;;;3.43;;
17937;SDS011;16051;53.024;8.630;2023-01-31T16:21:53;9.70;;;2.97;;
17937;SDS011;16051;53.024;8.630;2023-01-31T16:26:00;10.70;;;3.17;;
17937;SDS011;16051;53.024;8.630;2023-01-31T16:30:14;10.67;;;3.23;;
17937;SDS011;16051;53.024;8.630;2023-01-31T16:34:21;11.53;;;2.50;;
17937;SDS011;16051;53.024;8.630;2023-01-31T16:38:27;10.93;;;2.67;;
17937;SDS011;16051;53.024;8.630;2023-01-31T16:42:29;12.40;;;2.70;;
17937;SDS011;16051;53.024;8.630;2023-01-31T16:46:36;11.13;;;3.87;;
17937;SDS011;16051;53.024;8.630;2023-01-31T16:50:56;7.50;;;2.57;;
17937;SDS011;16051;53.024;8.630;2023-01-31T16:55:00;9.93;;;2.90;;
17937;SDS011;16051;53.024;8.630;2023-01-31T16:59:04;14.90;;;3.20;;
17937;SDS011;16051;53.024;8.630;2023-01-31T17:03:16;12.47;;;4.03;;
17937;SDS011;16051;53.024;8.630;2023-01-31T17:07:20;16.93;;;3.80;;
17937;SDS011;16051;53.024;8.630;2023-01-31T17:11:25;9.73;;;3.47;;
17937;SDS011;16051;53.024;8.630;2023-01-31T17:15:34;9.43;;;3.23;;
17937;SDS011;16051;53.024;8.630;2023-01-31T17:19:39;12.97;;;3.50;;
17937;SDS011;16051;53.024;8.630;2023-01-31T17:23:41;12.20;;;4.90;;
17937;SDS011;16051;53.024;8.630;2023-01-31T17:27:43;10.50;;;3.60;;
17937;SDS011;16051;53.024;8.630;2023-01-31T17:31:45;15.10;;;3.67;;
17937;SDS011;16051;53.024;8.630;2023-01-31T17:35:48;13.67;;;3.43;;
17937;SDS011;16051;53.024;8.630;2023-01-31T17:39:51;9.60;;;3.63;;
17937;SDS011;16051;53.024;8.630;2023-01-31T17:43:56;16.03;;;3.70;;
17937;SDS011;16051;53.024;8.630;2023-01-31T17:47:59;13.50;;;3.70;;
17937;SDS011;16051;53.024;8.630;2023-01-31T17:52:03;14.33;;;3.90;;
17937;SDS011;16051;53.024;8.630;2023-01-31T17:56:05;14.47;;;3.60;;
17937;SDS011;16051;53.024;8.630;2023-01-31T18:00:08;15.97;;;4.13;;
17937;SDS011;16051;53.024;8.630;2023-01-31T18:04:14;14.10;;;3.53;;
17937;SDS011;16051;53.024;8.630;2023-01-31T18:08:18;12.50;;;3.53;;
17937;SDS011;16051;53.024;8.630;2023-01-31T18:12:20;17.93;;;4.80;;
17937;SDS011;16051;53.024;8.630;2023-01-31T18:16:31;14.97;;;4.87;;
17937;SDS011;16051;53.024;8.630;2023-01-31T18:20:33;16.97;;;3.70;;
17937;SDS011;16051;53.024;8.630;2023-01-31T18:24:38;14.20;;;4.50;;
17937;SDS011;16051;53.024;8.630;2023-01-31T18:28:40;18.60;;;4.53;;
17937;SDS011;16051;53.024;8.630;2023-01-31T18:32:43;21.10;;;5.07;;
17937;SDS011;16051;53.024;8.630;2023-01-31T18:36:45;24.57;;;8.93;;
17937;SDS011;16051;53.024;8.630;2023-01-31T18:40:48;14.90;;;4.37;;
17937;SDS011;16051;53.024;8.630;2023-01-31T18:44:50;18.93;;;7.00;;
17937;SDS011;16051;53.024;8.630;2023-01-31T18:48:52;15.70;;;3.47;;
17937;SDS011;16051;53.024;8.630;2023-01-31T18:52:54;14.63;;;4.13;;
17937;SDS011;16051;53.024;8.630;2023-01-31T18:56:58;19.20;;;4.20;;
17937;SDS011;16051;53.024;8.630;2023-01-31T19:01:04;22.13;;;4.10;;
17937;SDS011;16051;53.024;8.630;2023-01-31T19:05:10;16.50;;;3.80;;
17937;SDS011;16051;53.024;8.630;2023-01-31T19:09:12;16.83;;;3.80;;
17937;SDS011;16051;53.024;8.630;2023-01-31T19:13:16;14.70;;;3.83;;
17937;SDS011;16051;53.024;8.630;2023-01-31T19:17:18;15.13;;;3.47;;
17937;SDS011;16051;53.024;8.630;2023-01-31T19:21:21;17.60;;;5.00;;
17937;SDS011;16051;53.024;8.630;2023-01-31T19:25:25;12.90;;;4.10;;
17937;SDS011;16051;53.024;8.630;2023-01-31T19:29:28;11.90;;;3.80;;
17937;SDS011;16051;53.024;8.630;2023-01-31T19:33:30;19.30;;;4.27;;
17937;SDS011;16051;53.024;8.630;2023-01-31T19:37:33;19.17;;;3.97;;
17937;SDS011;16051;53.024;8.630;2023-01-31T19:41:35;16.97;;;3.80;;
17937;SDS011;16051;53.024;8.630;2023-01-31T19:45:39;13.43;;;3.80;;
17937;SDS011;16051;53.024;8.630;2023-01-31T19:49:54;16.50;;;4.13;;
17937;SDS011;16051;53.024;8.630;2023-01-31T19:53:56;20.10;;;3.73;;
17937;SDS011;16051;53.024;8.630;2023-01-31T19:58:01;17.70;;;3.67;;
17937;SDS011;16051;53.024;8.630;2023-01-31T20:02:11;12.07;;;2.97;;
17937;SDS011;16051;53.024;8.630;2023-01-31T20:06:13;16.53;;;3.73;;
17937;SDS011;16051;53.024;8.630;2023-01-31T20:10:18;16.03;;;3.83;;
17937;SDS011;16051;53.024;8.630;2023-01-31T20:14:26;11.87;;;3.50;;
17937;SDS011;16051;53.024;8.630;2023-01-31T20:18:30;13.40;;;3.90;;
17937;SDS011;16051;53.024;8.630;2023-01-31T20:22:32;15.17;;;3.93;;
17937;SDS011;16051;53.024;8.630;2023-01-31T20:26:36;17.80;;;3.33;;
17937;SDS011;16051;53.024;8.630;2023-01-31T20:30:38;14.00;;;4.00;;
17937;SDS011;16051;53.024;8.630;2023-01-31T20:34:41;14.43;;;3.30;;
17937;SDS011;16051;53.024;8.630;2023-01-31T20:42:59;19.63;;;3.63;;
17937;SDS011;16051;53.024;8.630;2023-01-31T20:47:03;17.00;;;3.70;;
17937;SDS011;16051;53.024;8.630;2023-01-31T20:51:09;9.17;;;2.37;;
17937;SDS011;16051;53.024;8.630;2023-01-31T20:55:12;16.37;;;3.77;;
17937;SDS011;16051;53.024;8.630;2023-01-31T20:59:23;14.60;;;3.23;;
17937;SDS011;16051;53.024;8.630;2023-01-31T21:03:26;13.77;;;3.37;;
17937;SDS011;16051;53.024;8.630;2023-01-31T21:07:31;14.47;;;3.00;;
17937;SDS011;16051;53.024;8.630;2023-01-31T21:11:39;13.23;;;3.20;;
17937;SDS011;16051;53.024;8.630;2023-01-31T21:15:44;15.50;;;3.80;;
17937;SDS011;16051;53.024;8.630;2023-01-31T21:24:34;17.93;;;4.03;;
17937;SDS011;16051;53.024;8.630;2023-01-31T21:28:45;12.73;;;3.87;;
17937;SDS011;16051;53.024;8.630;2023-01-31T21:32:47;18.70;;;3.60;;
17937;SDS011;16051;53.024;8.630;2023-01-31T21:36:52;13.13;;;3.00;;
17937;SDS011;16051;53.024;8.630;2023-01-31T21:41:03;13.67;;;3.83;;
17937;SDS011;16051;53.024;8.630;2023-01-31T21:45:23;11.83;;;3.30;;
17937;SDS011;16051;53.024;8.630;2023-01-31T21:50:07;11.33;;;3.33;;
17937;SDS011;16051;53.024;8.630;2023-01-31T21:54:11;16.13;;;3.67;;
17937;SDS011;16051;53.024;8.630;2023-01-31T21:58:13;17.57;;;4.40;;
17937;SDS011;16051;53.024;8.630;2023-01-31T22:02:22;14.33;;;3.80;;
17937;SDS011;16051;53.024;8.630;2023-01-31T22:06:26;15.57;;;3.77;;
17937;SDS011;16051;53.024;8.630;2023-01-31T22:10:36;14.87;;;3.60;;
17937;SDS011;16051;53.024;8.630;2023-01-31T22:14:38;16.33;;;3.27;;
17937;SDS011;16051;53.024;8.630;2023-01-31T22:18:40;14.60;;;3.27;;
17937;SDS011;16051;53.024;8.630;2023-01-31T22:22:46;13.77;;;3.90;;
17937;SDS011;16051;53.024;8.630;2023-01-31T22:26:48;24.23;;;4.00;;
17937;SDS011;16051;53.024;8.630;2023-01-31T22:30:51;20.07;;;4.50;;
17937;SDS011;16051;53.024;8.630;2023-01-31T22:34:54;15.93;;;3.50;;
17937;SDS011;16051;53.024;8.630;2023-01-31T22:38:57;15.40;;;3.33;;
17937;SDS011;16051;53.024;8.630;2023-01-31T22:43:00;16.70;;;4.30;;
17937;SDS011;16051;53.024;8.630;2023-01-31T22:47:02;15.53;;;3.57;;
17937;SDS011;16051;53.024;8.630;2023-01-31T22:51:05;14.17;;;3.47;;
17937;SDS011;16051;53.024;8.630;2023-01-31T22:59:25;12.77;;;3.20;;
17937;SDS011;16051;53.024;8.630;2023-01-31T23:03:28;16.43;;;3.30;;
17937;SDS011;16051;53.024;8.630;2023-01-31T23:07:30;20.40;;;4.20;;
17937;SDS011;16051;53.024;8.630;2023-01-31T23:11:33;14.97;;;3.90;;
17937;SDS011;16051;53.024;8.630;2023-01-31T23:15:36;16.70;;;4.87;;
17937;SDS011;16051;53.024;8.630;2023-01-31T23:19:39;17.67;;;3.73;;
17937;SDS011;16051;53.024;8.630;2023-01-31T23:23:41;15.63;;;4.13;;
17937;SDS011;16051;53.024;8.630;2023-01-31T23:27:46;23.07;;;3.73;;
17937;SDS011;16051;53.024;8.630;2023-01-31T23:31:48;16.40;;;4.33;;
17937;SDS011;16051;53.024;8.630;2023-01-31T23:35:51;16.23;;;3.30;;
17937;SDS011;16051;53.024;8.630;2023-01-31T23:39:53;19.57;;;4.13;;
17937;SDS011;16051;53.024;8.630;2023-01-31T23:43:56;17.10;;;4.20;;
17937;SDS011;16051;53.024;8.630;2023-01-31T23:47:59;18.60;;;4.30;;
17937;SDS011;16051;53.024;8.630;2023-01-31T23:52:01;14.90;;;3.60;;
17937;SDS011;16051;53.024;8.630;2023-01-31T23:56:04;18.77;;;3.53;;
